Time;durP1;ratioP1;P1;durP2;ratioP2;P2;SDS_P1;SDS_P2;PMS_P1;PMS_P2;Temp;Humidity;BMP_temperature;BMP_pressure;BME280_temperature;BME280_humidity;BME280_pressure;Samples;Min_cycle;Max_cycle;Signal;HPM_P1;HPM_P2
2023/03/06 00:01:21;;;;;;;12.10;7.60;;;;;;;2.59;66.24;98115.39;235193;1193;139180;-71
2023/03/06 00:06:25;;;;;;;15.30;8.50;;;;;;;2.56;66.11;98114.98;235532;1193;139207;-71
2023/03/06 00:11:28;;;;;;;13.70;8.50;;;;;;;2.55;66.28;98119.74;235594;1194;139401;-71
2023/03/06 00:16:32;;;;;;;16.10;8.00;;;;;;;2.56;66.16;98120.73;235242;1193;139303;-70
2023/03/06 00:21:35;;;;;;;12.40;7.40;;;;;;;2.56;66.28;98120.77;235383;1193;139347;-70
2023/03/06 00:26:40;;;;;;;11.50;7.30;;;;;;;2.57;66.01;98111.45;233805;1193;150308;-70
2023/03/06 00:31:46;;;;;;;15.80;7.90;;;;;;;2.57;66.12;98104.07;233932;1193;139273;-72
2023/03/06 00:36:50;;;;;;;12.70;7.60;;;;;;;2.61;66.18;98103.57;235168;1194;140122;-69
2023/03/06 00:41:54;;;;;;;12.80;7.00;;;;;;;2.69;65.96;98100.05;235228;1193;138959;-70
2023/03/06 00:46:59;;;;;;;12.00;8.00;;;;;;;2.68;66.08;98096.59;235462;1194;138583;-69
2023/03/06 00:52:04;;;;;;;14.40;7.80;;;;;;;2.70;65.91;98092.16;235232;1193;139240;-68
2023/03/06 00:57:08;;;;;;;11.40;7.20;;;;;;;2.64;66.01;98090.48;235185;1193;140092;-69
2023/03/06 01:02:11;;;;;;;11.80;8.00;;;;;;;2.59;66.10;98091.91;235327;1192;138460;-69
2023/03/06 01:07:15;;;;;;;12.50;8.50;;;;;;;2.55;66.08;98090.52;234054;1193;138530;-69
2023/03/06 01:12:18;;;;;;;13.10;9.60;;;;;;;2.55;66.10;98092.81;235313;1192;139366;-70
2023/03/06 01:17:26;;;;;;;14.70;9.80;;;;;;;2.63;65.91;98091.92;233864;1193;138690;-68
2023/03/06 01:22:29;;;;;;;17.70;9.70;;;;;;;2.70;65.40;98097.19;234629;1193;138876;-68
2023/03/06 01:27:34;;;;;;;12.90;9.20;;;;;;;2.73;65.09;98097.42;233821;1193;138915;-69
2023/03/06 01:32:38;;;;;;;18.00;9.60;;;;;;;2.71;64.82;98093.83;235417;1192;138514;-70
2023/03/06 01:37:42;;;;;;;16.40;10.60;;;;;;;2.72;64.45;98089.23;235386;1194;139284;-70
2023/03/06 01:42:48;;;;;;;14.90;10.70;;;;;;;2.72;64.38;98083.84;235258;1193;142012;-70
2023/03/06 01:47:51;;;;;;;16.00;10.60;;;;;;;2.73;64.21;98081.31;235252;1194;139407;-70
2023/03/06 01:52:58;;;;;;;15.90;10.70;;;;;;;2.70;64.02;98082.32;235434;1194;139266;-70
2023/03/06 01:58:13;;;;;;;14.30;10.40;;;;;;;2.63;64.24;98082.64;235483;1193;140630;-69
2023/03/06 02:03:23;;;;;;;18.00;11.10;;;;;;;2.57;64.46;98078.19;235180;1195;139278;-69
2023/03/06 02:08:28;;;;;;;14.80;10.60;;;;;;;2.53;64.47;98077.65;232826;1193;138750;-71
2023/03/06 02:13:32;;;;;;;17.20;12.00;;;;;;;2.46;65.00;98087.07;235284;1193;138994;-69
2023/03/06 02:18:37;;;;;;;19.60;12.50;;;;;;;2.47;65.17;98088.96;231456;1193;139272;-69
2023/03/06 02:24:15;;;;;;;15.50;11.70;;;;;;;2.48;65.32;98083.84;235338;1193;139070;-70
2023/03/06 02:29:23;;;;;;;17.10;11.90;;;;;;;2.51;65.26;98070.05;234707;1193;139632;-70
2023/03/06 02:34:27;;;;;;;17.40;11.70;;;;;;;2.56;65.02;98064.73;235364;1192;138704;-70
2023/03/06 02:39:33;;;;;;;20.70;12.80;;;;;;;2.63;64.92;98066.72;229168;1193;139783;-72
2023/03/06 02:44:37;;;;;;;18.10;12.80;;;;;;;2.69;64.67;98062.21;232904;1193;138877;-70
2023/03/06 02:49:40;;;;;;;17.80;13.10;;;;;;;2.78;64.74;98066.89;235344;1193;138768;-71
2023/03/06 02:54:43;;;;;;;18.50;12.40;;;;;;;2.84;64.54;98059.94;235405;1193;139703;-71
2023/03/06 02:59:47;;;;;;;19.20;13.10;;;;;;;2.76;64.54;98062.42;235419;1192;139030;-70
2023/03/06 03:04:51;;;;;;;19.00;12.90;;;;;;;2.67;64.70;98066.73;230991;1196;138609;-68
2023/03/06 03:09:54;;;;;;;19.10;12.80;;;;;;;2.60;64.79;98059.86;235180;1194;138924;-67
2023/03/06 03:14:58;;;;;;;19.50;12.80;;;;;;;2.51;64.95;98067.96;234084;1193;138644;-71
2023/03/06 03:20:06;;;;;;;18.00;12.20;;;;;;;2.44;65.12;98062.67;235763;1192;138898;-73
2023/03/06 03:25:10;;;;;;;23.10;13.30;;;;;;;2.37;65.28;98060.00;235680;1192;139508;-71
2023/03/06 03:30:14;;;;;;;18.20;12.60;;;;;;;2.29;65.44;98059.65;234731;1195;139710;-71
2023/03/06 03:35:17;;;;;;;20.80;13.70;;;;;;;2.27;65.89;98058.87;232680;1193;140253;-66
2023/03/06 03:40:22;;;;;;;24.10;13.20;;;;;;;2.28;66.05;98051.48;235500;1193;138900;-70
2023/03/06 03:45:26;;;;;;;21.00;13.40;;;;;;;2.26;66.08;98049.65;235614;1194;139918;-70
2023/03/06 03:50:29;;;;;;;22.20;14.40;;;;;;;2.27;66.37;98046.62;235269;1193;138642;-70
2023/03/06 03:55:32;;;;;;;22.90;14.90;;;;;;;2.25;66.37;98042.67;235723;1192;139753;-70
2023/03/06 04:00:36;;;;;;;21.30;15.60;;;;;;;2.30;66.53;98032.67;234786;1192;139134;-69
2023/03/06 04:05:44;;;;;;;22.80;15.30;;;;;;;2.36;66.39;98030.48;235709;1193;139364;-70
2023/03/06 04:10:50;;;;;;;25.60;16.80;;;;;;;2.44;66.44;98024.66;235837;1193;139309;-70
2023/03/06 04:15:54;;;;;;;28.90;17.50;;;;;;;2.56;66.52;98024.14;235477;1192;138984;-70
2023/03/06 04:20:58;;;;;;;27.40;18.40;;;;;;;2.71;66.25;98022.55;235419;1195;140633;-70
2023/03/06 04:26:03;;;;;;;27.40;18.00;;;;;;;2.82;66.08;98019.40;235468;1192;139037;-71
2023/03/06 04:31:06;;;;;;;26.70;17.20;;;;;;;2.82;65.98;98015.02;235459;1193;139854;-71
2023/03/06 04:36:30;;;;;;;32.80;19.40;;;;;;;2.78;66.11;98014.85;235382;1193;138675;-71
2023/03/06 04:41:36;;;;;;;;;;;;;;;2.79;66.23;98013.23;232236;1194;139335;-69
2023/03/06 04:46:40;;;;;;;28.50;18.20;;;;;;;2.71;66.13;98012.73;235481;1193;125464;-69
2023/03/06 04:51:43;;;;;;;30.10;19.20;;;;;;;2.68;66.56;98009.73;235315;1193;139187;-70
2023/03/06 04:56:46;;;;;;;30.00;19.90;;;;;;;2.69;66.53;98003.73;235110;1192;138915;-70
2023/03/06 05:01:49;;;;;;;31.10;20.50;;;;;;;2.74;66.50;98007.71;235344;1193;139589;-71
2023/03/06 05:06:53;;;;;;;30.40;19.80;;;;;;;2.77;66.49;98005.98;235269;1194;139136;-72
2023/03/06 05:11:57;;;;;;;28.20;19.60;;;;;;;2.74;66.66;98008.38;234408;1197;139655;-70
2023/03/06 05:17:01;;;;;;;29.40;19.60;;;;;;;2.74;66.79;98013.34;234927;1193;139453;-69
2023/03/06 05:22:04;;;;;;;31.40;20.30;;;;;;;2.77;66.77;98013.53;235236;1197;139488;-70
2023/03/06 05:27:07;;;;;;;30.00;19.20;;;;;;;2.85;66.43;98014.73;235450;1193;139427;-70
2023/03/06 05:32:11;;;;;;;30.80;20.30;;;;;;;2.93;66.40;98010.86;234051;1192;139846;-70
2023/03/06 05:37:15;;;;;;;30.50;20.90;;;;;;;3.02;66.14;98009.19;235351;1193;139299;-76
2023/03/06 05:42:19;;;;;;;123.60;77.40;;;;;;;3.14;66.43;98008.91;235613;1193;139555;-70
2023/03/06 05:47:22;;;;;;;57.30;36.40;;;;;;;3.18;65.77;98005.59;233314;1193;139937;-69
2023/03/06 05:52:26;;;;;;;35.00;21.40;;;;;;;3.15;65.96;98003.14;235226;1193;139626;-69
2023/03/06 05:57:29;;;;;;;29.30;20.80;;;;;;;3.20;65.46;98006.38;235189;1197;138851;-69
2023/03/06 06:02:32;;;;;;;27.70;18.60;;;;;;;3.13;65.31;98002.18;235210;1192;138906;-70
2023/03/06 06:07:36;;;;;;;32.00;19.70;;;;;;;3.09;65.63;98002.54;235161;1194;138856;-70
2023/03/06 06:12:39;;;;;;;30.40;18.80;;;;;;;3.06;65.88;98004.80;235227;1194;139133;-70
2023/03/06 06:17:42;;;;;;;53.80;32.60;;;;;;;3.06;65.88;98002.86;235180;1193;139772;-69
2023/03/06 06:22:46;;;;;;;29.20;18.30;;;;;;;3.16;66.13;98005.34;232823;1197;139123;-70
2023/03/06 06:27:49;;;;;;;26.00;17.70;;;;;;;3.21;65.80;98006.48;234283;1194;138672;-70
2023/03/06 06:32:52;;;;;;;27.20;18.70;;;;;;;3.23;65.83;98002.55;235387;1193;139943;-71
2023/03/06 06:37:55;;;;;;;186.70;102.90;;;;;;;3.28;65.97;98007.38;235291;1193;140922;-72
2023/03/06 06:42:59;;;;;;;32.20;19.50;;;;;;;3.39;65.74;97997.58;235312;1194;138978;-73
2023/03/06 06:48:03;;;;;;;22.60;16.40;;;;;;;3.49;65.14;97997.56;235439;1193;139872;-73
2023/03/06 06:53:06;;;;;;;22.80;15.90;;;;;;;3.56;65.17;97991.61;235519;1192;139334;-72
2023/03/06 06:58:09;;;;;;;22.70;14.90;;;;;;;3.74;65.18;97988.40;233954;1193;139356;-73
2023/03/06 07:03:13;;;;;;;21.70;14.80;;;;;;;3.97;64.43;97993.02;235330;1195;139011;-73
2023/03/06 07:08:17;;;;;;;21.20;15.30;;;;;;;4.11;64.11;97993.13;231620;1197;141161;-68
2023/03/06 07:13:20;;;;;;;21.40;15.20;;;;;;;4.21;63.66;97985.43;234312;1193;139672;-73
2023/03/06 07:18:23;;;;;;;20.40;14.40;;;;;;;4.29;63.59;97983.80;235220;1193;138761;-73
2023/03/06 07:23:27;;;;;;;19.50;13.00;;;;;;;4.29;63.18;97988.16;235357;1193;141259;-74
2023/03/06 07:28:31;;;;;;;22.40;14.20;;;;;;;4.27;63.04;97988.08;235322;1193;139602;-73
2023/03/06 07:33:54;;;;;;;19.30;12.70;;;;;;;4.27;62.92;97988.77;235285;1193;140252;-72
2023/03/06 07:38:57;;;;;;;19.40;14.80;;;;;;;4.32;62.61;97993.48;235245;1193;138942;-74
2023/03/06 07:44:01;;;;;;;18.40;13.20;;;;;;;4.44;61.81;97993.48;235239;1194;139097;-74
2023/03/06 07:49:05;;;;;;;18.10;12.40;;;;;;;4.55;61.30;97997.48;235529;1193;139319;-71
2023/03/06 07:54:08;;;;;;;21.80;13.20;;;;;;;4.61;61.20;97997.52;235655;1193;139033;-72
2023/03/06 07:59:12;;;;;;;66.20;40.60;;;;;;;4.65;60.98;98003.79;235694;1196;138757;-70
2023/03/06 08:04:15;;;;;;;21.50;14.20;;;;;;;4.75;60.20;98005.85;235624;1196;138700;-70
2023/03/06 08:09:19;;;;;;;19.40;12.70;;;;;;;4.87;59.93;98005.70;232965;1193;138373;-72
2023/03/06 08:14:23;;;;;;;21.10;13.00;;;;;;;4.91;59.46;98006.21;235439;1193;139747;-71
2023/03/06 08:19:26;;;;;;;17.60;11.70;;;;;;;4.98;59.17;98001.40;235319;1192;138953;-71
2023/03/06 08:24:29;;;;;;;18.30;11.40;;;;;;;5.09;58.58;98005.02;235321;1193;139981;-71
2023/03/06 08:29:33;;;;;;;18.20;11.50;;;;;;;5.10;58.15;98006.02;235401;1193;138885;-73
2023/03/06 08:34:38;;;;;;;83.80;53.90;;;;;;;5.18;57.32;98003.95;235408;1193;139738;-71
2023/03/06 08:39:42;;;;;;;17.80;11.90;;;;;;;5.27;57.06;97997.83;233679;1193;139602;-70
2023/03/06 08:44:45;;;;;;;17.50;11.10;;;;;;;5.33;56.50;97996.60;233929;1193;141233;-71
2023/03/06 08:49:49;;;;;;;15.60;10.30;;;;;;;5.37;57.10;97996.21;235384;1193;138903;-71
2023/03/06 08:54:52;;;;;;;16.90;10.50;;;;;;;5.46;56.71;97997.30;235549;1193;139743;-71
2023/03/06 08:59:56;;;;;;;15.20;10.00;;;;;;;5.59;55.53;97997.90;235306;1196;140636;-71
2023/03/06 09:05:00;;;;;;;15.10;10.20;;;;;;;5.67;55.30;98000.73;235635;1196;138937;-72
2023/03/06 09:10:03;;;;;;;14.60;9.90;;;;;;;5.80;54.89;98002.63;235479;1193;139655;-71
2023/03/06 09:15:08;;;;;;;11.90;8.90;;;;;;;5.90;54.40;98002.45;235556;1196;139220;-72
2023/03/06 09:20:12;;;;;;;54.70;34.60;;;;;;;6.05;54.07;98001.39;235634;1192;139729;-68
2023/03/06 09:25:19;;;;;;;12.00;9.50;;;;;;;6.27;54.14;98002.17;230500;1193;138988;-71
2023/03/06 09:30:22;;;;;;;13.10;8.80;;;;;;;6.38;52.59;98003.55;233885;1193;139297;-67
2023/03/06 09:35:25;;;;;;;10.40;8.20;;;;;;;6.39;51.63;98001.05;231916;1193;161940;-68
2023/03/06 09:41:01;;;;;;;112.70;67.80;;;;;;;6.37;51.53;98000.27;235455;1194;138669;-72
2023/03/06 09:46:41;;;;;;;75.60;45.90;;;;;;;6.48;50.79;98001.41;235302;1193;139610;-69
2023/03/06 09:51:59;;;;;;;11.20;8.00;;;;;;;6.45;49.30;97997.33;229224;1197;138712;-70
2023/03/06 09:57:13;;;;;;;13.60;8.50;;;;;;;6.46;49.74;97992.88;233591;1196;138857;-71
2023/03/06 10:02:27;;;;;;;23.70;15.20;;;;;;;6.55;49.48;97985.98;234857;1193;138900;-71
2023/03/06 10:08:01;;;;;;;14.00;8.90;;;;;;;6.62;49.50;97983.54;232979;1197;139571;-70
2023/03/06 10:13:15;;;;;;;12.60;8.30;;;;;;;6.66;49.23;97975.23;234291;1193;139283;-69
2023/03/06 10:18:19;;;;;;;8.70;6.30;;;;;;;6.77;49.60;97975.73;235498;1193;139586;-69
2023/03/06 10:23:32;;;;;;;9.30;6.90;;;;;;;6.78;48.08;97968.31;235545;1193;139391;-71
2023/03/06 10:28:53;;;;;;;7.20;5.50;;;;;;;6.97;47.71;97959.13;235398;1193;138672;-69
2023/03/06 10:34:15;;;;;;;8.00;5.40;;;;;;;7.06;46.58;97953.92;235415;1193;139084;-69
2023/03/06 10:39:21;;;;;;;10.00;5.20;;;;;;;7.11;46.05;97947.48;235239;1193;138457;-70
2023/03/06 10:44:24;;;;;;;8.90;5.30;;;;;;;7.44;46.84;97939.64;235169;1193;139740;-70
2023/03/06 10:49:33;;;;;;;7.50;4.60;;;;;;;7.85;46.01;97932.44;235394;1196;138649;-70
2023/03/06 10:54:49;;;;;;;169.80;99.50;;;;;;;8.11;44.73;97924.63;234799;1192;141429;-69
2023/03/06 10:59:59;;;;;;;8.00;3.80;;;;;;;8.28;42.02;97916.37;234574;1193;139973;-70
2023/03/06 11:05:05;;;;;;;9.20;4.10;;;;;;;8.41;42.18;97906.66;234321;1196;138178;-70
2023/03/06 11:10:17;;;;;;;16.30;4.70;;;;;;;8.39;42.00;97906.94;235404;1193;139425;-71
2023/03/06 11:15:22;;;;;;;9.20;3.50;;;;;;;8.38;41.16;97900.31;235204;1192;138842;-70
2023/03/06 11:20:32;;;;;;;13.00;3.30;;;;;;;8.38;41.42;97895.37;235618;1193;143147;-69
2023/03/06 11:26:21;;;;;;;19.40;13.30;;;;;;;8.47;41.61;97883.96;235703;1196;139024;-69
2023/03/06 11:31:31;;;;;;;6.00;3.40;;;;;;;8.65;41.20;97879.09;235472;1196;139600;-70
2023/03/06 11:37:05;;;;;;;8.50;3.30;;;;;;;8.42;39.88;97880.04;235374;1196;139416;-69
2023/03/06 11:42:25;;;;;;;5.30;3.40;;;;;;;8.24;39.59;97879.53;235226;1193;138880;-71
2023/03/06 11:47:35;;;;;;;9.30;3.70;;;;;;;8.31;40.05;97870.95;235437;1193;138193;-71
2023/03/06 11:52:41;;;;;;;6.70;3.80;;;;;;;8.26;39.94;97864.38;235453;1192;138373;-72
2023/03/06 11:57:55;;;;;;;6.80;3.80;;;;;;;8.20;40.06;97858.48;235568;1192;138898;-70
2023/03/06 12:03:26;;;;;;;6.20;4.50;;;;;;;8.33;39.79;97851.71;235386;1191;139037;-70
2023/03/06 12:09:11;;;;;;;11.00;4.30;;;;;;;8.52;40.23;97837.65;235712;1192;138608;-70
2023/03/06 12:14:36;;;;;;;7.10;4.50;;;;;;;8.75;40.21;97827.63;235328;1192;139770;-73
2023/03/06 12:19:52;;;;;;;7.60;4.40;;;;;;;8.71;39.92;97817.49;235599;1196;138940;-72
2023/03/06 12:25:32;;;;;;;6.70;4.20;;;;;;;8.61;40.34;97815.95;233462;1197;138636;-70
2023/03/06 12:30:44;;;;;;;9.20;4.40;;;;;;;8.37;40.33;97808.49;232486;1196;139137;-71
2023/03/06 12:35:54;;;;;;;5.00;4.00;;;;;;;8.16;40.64;97807.70;232173;1197;140392;-69
2023/03/06 12:41:29;;;;;;;9.20;4.60;;;;;;;8.05;40.56;97808.79;234278;1193;139344;-71
2023/03/06 12:46:38;;;;;;;8.30;4.50;;;;;;;8.01;40.89;97805.36;235504;1194;139647;-71
2023/03/06 12:51:44;;;;;;;5.80;3.90;;;;;;;8.01;40.93;97798.88;235553;1193;139088;-71
2023/03/06 12:56:49;;;;;;;8.20;4.60;;;;;;;8.04;40.74;97789.97;235593;1192;139485;-71
2023/03/06 13:02:33;;;;;;;7.30;4.20;;;;;;;8.09;41.05;97786.45;234926;1193;139367;-72
2023/03/06 13:08:02;;;;;;;8.30;4.60;;;;;;;8.23;40.89;97786.19;234730;1193;138927;-71
2023/03/06 13:13:24;;;;;;;11.10;4.80;;;;;;;8.22;40.63;97780.88;235290;1196;139244;-72
2023/03/06 13:18:34;;;;;;;9.00;4.70;;;;;;;8.22;40.64;97779.50;235387;1193;139146;-70
2023/03/06 13:23:50;;;;;;;7.00;4.40;;;;;;;8.25;41.02;97780.50;233819;1193;138826;-72
2023/03/06 13:28:56;;;;;;;6.80;4.20;;;;;;;8.16;41.03;97774.64;234807;1192;139176;-70
2023/03/06 13:34:02;;;;;;;7.60;4.60;;;;;;;8.14;40.69;97771.05;235668;1192;138467;-70
2023/03/06 13:39:08;;;;;;;5.10;3.20;;;;;;;8.08;40.91;97772.61;234294;1193;138458;-71
2023/03/06 13:44:23;;;;;;;6.50;4.00;;;;;;;7.89;41.67;97754.14;233618;1196;139253;-71
2023/03/06 13:49:28;;;;;;;;;;;;;;;7.89;42.22;97750.10;230679;1193;138427;-72
2023/03/06 13:54:50;;;;;;;6.60;3.10;;;;;;;8.02;42.14;97747.56;233233;1192;124954;-71
2023/03/06 14:00:04;;;;;;;8.40;3.40;;;;;;;8.11;41.61;97744.27;235626;1192;138580;-71
2023/03/06 14:05:14;;;;;;;7.20;4.20;;;;;;;8.08;41.31;97748.73;235660;1192;139146;-71
2023/03/06 14:10:24;;;;;;;7.50;4.30;;;;;;;8.03;42.48;97758.60;235489;1192;139398;-72
2023/03/06 14:15:30;;;;;;;9.90;4.90;;;;;;;7.70;45.75;97770.38;235351;1193;138677;-71
2023/03/06 14:20:49;;;;;;;7.90;3.70;;;;;;;7.15;48.23;97775.77;235500;1193;139348;-71
2023/03/06 14:26:01;;;;;;;6.70;4.10;;;;;;;6.75;50.24;97784.97;235356;1193;139091;-71
2023/03/06 14:31:05;;;;;;;6.40;3.90;;;;;;;6.53;51.13;97787.14;235534;1193;139324;-71
2023/03/06 14:36:13;;;;;;;5.60;3.40;;;;;;;6.50;51.90;97790.38;235482;1193;138871;-72
2023/03/06 14:41:27;;;;;;;4.50;3.20;;;;;;;6.29;52.56;97792.95;235647;1192;138448;-71
2023/03/06 14:46:31;;;;;;;6.00;3.70;;;;;;;6.15;52.93;97793.52;235503;1195;139166;-72
2023/03/06 14:51:49;;;;;;;8.10;4.00;;;;;;;6.15;53.67;97790.48;235594;1193;138621;-71
2023/03/06 14:57:01;;;;;;;6.50;4.10;;;;;;;6.15;54.18;97788.02;235596;1193;138994;-70
2023/03/06 15:02:08;;;;;;;8.20;3.90;;;;;;;6.23;54.02;97782.77;235343;1193;138278;-70
2023/03/06 15:07:16;;;;;;;5.30;3.50;;;;;;;6.41;53.54;97780.05;235284;1193;138830;-71
2023/03/06 15:12:20;;;;;;;6.40;3.70;;;;;;;6.58;53.14;97771.00;235349;1193;139122;-71
2023/03/06 15:17:29;;;;;;;9.60;3.80;;;;;;;6.67;52.64;97771.61;235398;1195;139276;-72
2023/03/06 15:22:37;;;;;;;14.50;3.90;;;;;;;6.72;51.43;97756.33;235296;1195;138369;-72
2023/03/06 15:27:50;;;;;;;13.50;3.40;;;;;;;6.71;50.77;97757.09;235163;1193;138913;-72
2023/03/06 15:33:08;;;;;;;11.00;3.40;;;;;;;6.76;49.60;97757.09;234134;1196;139099;-72
2023/03/06 15:38:39;;;;;;;5.70;3.10;;;;;;;6.77;49.18;97752.94;235271;1194;138921;-71
2023/03/06 15:43:43;;;;;;;7.90;3.00;;;;;;;6.77;48.81;97751.90;235471;1193;139187;-72
2023/03/06 15:48:55;;;;;;;10.00;3.50;;;;;;;6.79;48.21;97753.31;235471;1193;138654;-72
2023/03/06 15:53:58;;;;;;;10.10;3.50;;;;;;;6.81;48.12;97751.27;235158;1193;138601;-71
2023/03/06 15:59:23;;;;;;;11.60;3.40;;;;;;;6.81;47.85;97752.11;235324;1196;138856;-72
2023/03/06 16:04:27;;;;;;;6.60;3.50;;;;;;;6.77;47.26;97754.35;235344;1193;141336;-71
2023/03/06 16:09:31;;;;;;;8.00;3.50;;;;;;;6.78;46.69;97757.11;235175;1195;138448;-71
2023/03/06 16:14:35;;;;;;;8.00;3.60;;;;;;;6.76;45.85;97758.29;235542;1192;138876;-71
2023/03/06 16:19:38;;;;;;;10.10;3.50;;;;;;;6.76;46.19;97752.66;235217;1196;138558;-70
2023/03/06 16:24:42;;;;;;;10.30;3.80;;;;;;;6.76;45.87;97749.13;235241;1193;139022;-72
2023/03/06 16:29:45;;;;;;;13.00;3.50;;;;;;;6.75;45.83;97747.97;235281;1193;139256;-72
2023/03/06 16:34:48;;;;;;;8.10;3.50;;;;;;;6.72;45.69;97753.63;235415;1193;139360;-72
2023/03/06 16:39:52;;;;;;;10.80;4.20;;;;;;;6.71;45.12;97755.33;235223;1193;139333;-71
2023/03/06 16:44:56;;;;;;;11.10;3.70;;;;;;;6.70;45.20;97759.83;235108;1194;139202;-71
2023/03/06 16:50:03;;;;;;;8.70;3.80;;;;;;;6.71;44.79;97755.11;235290;1192;138463;-71
2023/03/06 16:55:07;;;;;;;12.10;4.20;;;;;;;6.71;44.87;97755.27;235371;1193;139084;-71
2023/03/06 17:00:12;;;;;;;13.60;4.00;;;;;;;6.68;45.04;97756.23;235572;1193;139027;-72
2023/03/06 17:05:18;;;;;;;8.60;4.40;;;;;;;6.70;45.18;97758.60;235376;1194;139252;-71
2023/03/06 17:10:25;;;;;;;9.30;4.40;;;;;;;6.66;45.01;97770.45;235208;1193;138815;-71
2023/03/06 17:15:28;;;;;;;10.10;4.80;;;;;;;6.62;45.35;97774.08;234666;1193;138939;-71
2023/03/06 17:20:31;;;;;;;11.40;5.00;;;;;;;6.56;46.09;97781.55;235277;1193;138471;-70
2023/03/06 17:25:37;;;;;;;12.10;4.60;;;;;;;6.45;46.77;97778.33;235431;1193;139589;-71
2023/03/06 17:30:40;;;;;;;9.90;5.10;;;;;;;6.31;47.73;97778.88;235487;1193;139067;-70
2023/03/06 17:35:44;;;;;;;8.50;4.90;;;;;;;6.17;48.34;97778.20;235258;1194;138670;-70
2023/03/06 17:40:47;;;;;;;13.80;5.40;;;;;;;6.12;49.22;97775.59;235724;1192;138435;-70
2023/03/06 17:45:50;;;;;;;9.90;5.40;;;;;;;6.06;49.60;97777.33;235479;1193;139185;-69
2023/03/06 17:50:54;;;;;;;11.20;5.70;;;;;;;5.98;50.22;97780.33;235186;1193;138866;-70
2023/03/06 17:55:58;;;;;;;10.80;5.60;;;;;;;5.93;50.52;97783.11;235152;1196;139045;-70
2023/03/06 18:01:20;;;;;;;10.60;5.10;;;;;;;5.85;51.19;97781.84;234631;1193;139137;-71
2023/03/06 18:06:26;;;;;;;11.00;6.00;;;;;;;5.78;51.51;97778.91;235636;1195;139937;-71
2023/03/06 18:11:31;;;;;;;12.30;5.70;;;;;;;5.75;51.88;97781.20;235503;1193;138828;-72
2023/03/06 18:16:34;;;;;;;14.60;6.30;;;;;;;5.69;52.16;97780.36;235305;1193;138861;-70
2023/03/06 18:21:38;;;;;;;15.70;6.60;;;;;;;5.67;52.62;97778.54;235540;1193;139201;-69
2023/03/06 18:26:42;;;;;;;12.00;6.90;;;;;;;5.65;52.80;97776.21;235605;1192;138589;-69
2023/03/06 18:31:48;;;;;;;14.10;7.00;;;;;;;5.61;53.28;97773.67;234491;1192;138701;-70
2023/03/06 18:36:52;;;;;;;15.40;7.90;;;;;;;5.62;53.35;97773.90;233946;1194;139047;-69
2023/03/06 18:41:55;;;;;;;12.40;7.20;;;;;;;5.59;53.55;97776.60;235553;1192;138673;-70
2023/03/06 18:46:58;;;;;;;14.40;8.10;;;;;;;5.54;53.99;97775.01;235335;1193;139076;-68
2023/03/06 18:52:02;;;;;;;13.80;8.10;;;;;;;5.49;53.95;97777.38;235221;1193;139059;-69
2023/03/06 18:57:05;;;;;;;80.80;53.40;;;;;;;5.49;54.73;97774.58;235361;1192;138492;-72
2023/03/06 19:02:11;;;;;;;18.00;9.20;;;;;;;5.59;54.75;97771.52;235327;1193;139461;-69
2023/03/06 19:07:14;;;;;;;14.90;8.30;;;;;;;5.55;54.50;97770.52;235422;1193;139113;-69
2023/03/06 19:12:17;;;;;;;17.40;9.60;;;;;;;5.54;54.52;97774.63;235432;1193;138867;-69
2023/03/06 19:17:21;;;;;;;15.20;8.80;;;;;;;5.45;54.73;97771.65;235696;1192;139130;-69
2023/03/06 19:22:26;;;;;;;158.70;96.50;;;;;;;5.36;55.57;97778.54;235487;1192;139134;-69
2023/03/06 19:27:31;;;;;;;22.80;11.70;;;;;;;5.38;55.92;97782.27;235363;1193;139643;-68
2023/03/06 19:32:34;;;;;;;19.40;10.70;;;;;;;5.41;55.64;97780.70;235511;1193;138995;-70
2023/03/06 19:37:38;;;;;;;17.40;10.40;;;;;;;5.33;55.68;97783.80;235530;1195;139059;-70
2023/03/06 19:42:41;;;;;;;23.90;10.90;;;;;;;5.20;56.30;97779.32;235540;1191;139333;-70
2023/03/06 19:47:45;;;;;;;19.00;11.20;;;;;;;5.20;56.42;97779.68;235577;1195;139738;-71
2023/03/06 19:52:51;;;;;;;19.70;10.60;;;;;;;5.19;56.58;97777.27;235651;1192;139383;-70
2023/03/06 19:57:54;;;;;;;;;;;;;;;5.15;56.60;97774.86;235573;1193;139696;-70
2023/03/06 20:02:58;;;;;;;22.70;11.70;;;;;;;5.14;56.55;97775.67;232711;1192;125551;-72
2023/03/06 20:08:02;;;;;;;23.10;11.70;;;;;;;5.09;56.63;97770.16;235615;1192;138919;-73
2023/03/06 20:13:07;;;;;;;20.60;12.20;;;;;;;5.05;56.74;97773.92;235616;1192;138878;-72
2023/03/06 20:18:11;;;;;;;20.80;12.50;;;;;;;5.06;57.01;97774.02;235434;1193;139635;-71
2023/03/06 20:23:14;;;;;;;26.60;13.80;;;;;;;5.10;57.03;97779.23;235635;1193;140040;-70
2023/03/06 20:28:18;;;;;;;24.70;12.30;;;;;;;5.12;56.97;97786.64;234254;1193;138956;-72
2023/03/06 20:33:21;;;;;;;23.60;13.30;;;;;;;5.11;57.28;97784.48;235496;1193;139192;-69
2023/03/06 20:38:25;;;;;;;26.30;13.50;;;;;;;5.08;57.62;97778.49;235526;1193;139161;-71
2023/03/06 20:43:28;;;;;;;28.00;14.30;;;;;;;5.02;57.75;97773.89;235347;1193;138763;-69
2023/03/06 20:48:31;;;;;;;28.40;14.00;;;;;;;5.00;57.82;97774.23;235453;1192;139415;-71
2023/03/06 20:53:35;;;;;;;24.30;13.80;;;;;;;4.98;57.68;97773.46;235727;1193;139870;-71
2023/03/06 20:58:38;;;;;;;26.00;14.40;;;;;;;4.95;58.03;97775.56;235737;1193;139265;-72
2023/03/06 21:03:42;;;;;;;28.00;14.90;;;;;;;4.95;57.96;97769.77;235631;1192;140924;-72
2023/03/06 21:08:46;;;;;;;25.40;14.30;;;;;;;4.93;57.80;97770.91;235681;1194;139377;-72
2023/03/06 21:13:51;;;;;;;28.50;14.70;;;;;;;4.96;57.68;97768.49;235669;1193;139259;-70
2023/03/06 21:18:56;;;;;;;23.40;14.50;;;;;;;4.93;57.64;97762.27;235580;1192;138797;-72
2023/03/06 21:24:00;;;;;;;26.70;15.60;;;;;;;4.90;57.71;97763.89;233670;1192;139211;-69
2023/03/06 21:29:04;;;;;;;25.50;15.70;;;;;;;4.85;58.02;97764.92;234236;1193;138795;-71
2023/03/06 21:34:07;;;;;;;27.70;15.40;;;;;;;4.79;58.08;97761.95;235373;1192;139751;-71
2023/03/06 21:39:17;;;;;;;28.00;16.40;;;;;;;4.74;58.29;97759.78;232601;1196;139422;-70
2023/03/06 21:44:20;;;;;;;27.80;15.70;;;;;;;4.65;58.49;97764.90;235329;1193;140369;-71
2023/03/06 21:49:24;;;;;;;26.60;15.60;;;;;;;4.62;58.49;97765.20;235670;1192;139464;-71
2023/03/06 21:54:28;;;;;;;29.00;16.00;;;;;;;4.59;58.60;97768.20;235485;1193;139139;-71
2023/03/06 21:59:31;;;;;;;29.30;16.40;;;;;;;4.60;58.46;97765.86;235510;1193;139306;-72
2023/03/06 22:04:35;;;;;;;29.60;17.20;;;;;;;4.57;58.67;97760.23;235543;1194;138761;-71
2023/03/06 22:09:39;;;;;;;29.90;18.10;;;;;;;4.52;58.72;97756.16;233982;1192;138746;-71
2023/03/06 22:14:42;;;;;;;29.90;17.40;;;;;;;4.49;58.71;97752.63;235426;1194;139061;-71
2023/03/06 22:19:47;;;;;;;31.20;17.40;;;;;;;4.42;58.68;97747.74;235304;1193;139125;-70
2023/03/06 22:24:51;;;;;;;34.70;18.80;;;;;;;4.36;58.95;97749.67;235644;1195;138805;-70
2023/03/06 22:29:54;;;;;;;34.50;19.00;;;;;;;4.29;58.79;97745.52;235603;1193;138669;-71
2023/03/06 22:34:58;;;;;;;35.60;20.40;;;;;;;4.22;59.22;97746.78;235315;1195;138954;-71
2023/03/06 22:40:01;;;;;;;33.00;19.50;;;;;;;4.20;59.05;97747.97;235117;1194;139474;-72
2023/03/06 22:45:05;;;;;;;37.10;20.60;;;;;;;4.20;59.16;97749.54;235317;1193;138967;-71
2023/03/06 22:50:09;;;;;;;35.40;20.10;;;;;;;4.19;59.35;97755.23;235253;1193;139315;-71
2023/03/06 22:55:13;;;;;;;34.60;20.90;;;;;;;4.20;59.17;97750.63;235459;1196;138762;-71
2023/03/06 23:00:17;;;;;;;37.90;22.10;;;;;;;4.16;59.21;97752.59;235645;1193;139549;-72
2023/03/06 23:05:20;;;;;;;39.60;22.20;;;;;;;4.16;59.21;97755.38;230334;1198;139529;-72
2023/03/06 23:10:24;;;;;;;38.00;22.30;;;;;;;4.15;59.43;97759.69;234849;1193;139249;-71
2023/03/06 23:15:47;;;;;;;41.80;24.50;;;;;;;4.15;59.23;97757.20;235478;1195;138573;-71
2023/03/06 23:21:13;;;;;;;43.90;24.30;;;;;;;4.15;59.68;97752.85;235462;1193;139417;-71
2023/03/06 23:26:36;;;;;;;43.70;24.00;;;;;;;4.20;59.43;97752.54;235275;1194;139813;-71